sensor_id;sensor_type;location;lat;lon;timestamp;pressure;altitude;pressure_sealevel;temperature;humidity
19208;BME280;9737;59.466;18.036;2024-02-26T00:00:24;99258.63;;;-1.91;81.48
19208;BME280;9737;59.466;18.036;2024-02-26T00:02:52;99339.47;;;-1.71;81.51
19208;BME280;9737;59.466;18.036;2024-02-26T00:05:21;99438.38;;;-1.46;81.58
19208;BME280;9737;59.466;18.036;2024-02-26T00:07:50;99512.44;;;-1.28;81.85
19208;BME280;9737;59.466;18.036;2024-02-26T00:10:19;99584.78;;;-1.10;81.98
19208;BME280;9737;59.466;18.036;2024-02-26T00:12:48;99642.44;;;-0.94;81.54
19208;BME280;9737;59.466;18.036;2024-02-26T00:15:16;99674.38;;;-0.87;81.67
19208;BME280;9737;59.466;18.036;2024-02-26T00:17:44;99706.28;;;-0.79;81.76
19208;BME280;9737;59.466;18.036;2024-02-26T00:20:12;99745.09;;;-0.70;82.11
19208;BME280;9737;59.466;18.036;2024-02-26T00:22:41;99751.91;;;-0.66;81.48
19208;BME280;9737;59.466;18.036;2024-02-26T00:25:09;99752.81;;;-0.67;82.10
19208;BME280;9737;59.466;18.036;2024-02-26T00:27:39;99770.06;;;-0.63;81.94
19208;BME280;9737;59.466;18.036;2024-02-26T00:30:09;99785.63;;;-0.60;81.90
19208;BME280;9737;59.466;18.036;2024-02-26T00:32:37;99764.97;;;-0.66;81.95
19208;BME280;9737;59.466;18.036;2024-02-26T00:35:06;99764.84;;;-0.63;81.86
19208;BME280;9737;59.466;18.036;2024-02-26T00:37:34;99777.00;;;-0.62;82.03
19208;BME280;9737;59.466;18.036;2024-02-26T00:40:03;99766.53;;;-0.62;81.63
19208;BME280;9737;59.466;18.036;2024-02-26T00:42:31;99764.84;;;-0.63;82.27
19208;BME280;9737;59.466;18.036;2024-02-26T00:44:59;99773.47;;;-0.61;82.18
19208;BME280;9737;59.466;18.036;2024-02-26T00:47:27;99784.75;;;-0.60;81.95
19208;BME280;9737;59.466;18.036;2024-02-26T00:49:57;99782.09;;;-0.59;82.24
19208;BME280;9737;59.466;18.036;2024-02-26T00:52:26;99780.38;;;-0.60;82.26
19208;BME280;9737;59.466;18.036;2024-02-26T00:54:53;99778.69;;;-0.61;82.05
19208;BME280;9737;59.466;18.036;2024-02-26T00:57:23;99785.63;;;-0.60;82.32
19208;BME280;9737;59.466;18.036;2024-02-26T00:59:51;99802.91;;;-0.56;81.83
19208;BME280;9737;59.466;18.036;2024-02-26T01:02:19;99830.50;;;-0.49;82.51
19208;BME280;9737;59.466;18.036;2024-02-26T01:05:12;99818.34;;;-0.50;82.14
19208;BME280;9737;59.466;18.036;2024-02-26T01:08:30;99828.06;;;-0.53;82.17
19208;BME280;9737;59.466;18.036;2024-02-26T01:11:47;99825.38;;;-0.52;82.10
19208;BME280;9737;59.466;18.036;2024-02-26T01:15:06;99846.84;;;-0.44;82.27
19208;BME280;9737;59.466;18.036;2024-02-26T01:18:23;99842.53;;;-0.45;82.07
19208;BME280;9737;59.466;18.036;2024-02-26T01:21:40;99860.81;;;-0.45;82.06
19208;BME280;9737;59.466;18.036;2024-02-26T01:24:57;99883.97;;;-0.36;82.20
19208;BME280;9737;59.466;18.036;2024-02-26T01:28:14;99892.47;;;-0.31;82.17
19208;BME280;9737;59.466;18.036;2024-02-26T01:31:33;99896.13;;;-0.35;82.22
19208;BME280;9737;59.466;18.036;2024-02-26T01:34:49;99902.94;;;-0.31;82.40
19208;BME280;9737;59.466;18.036;2024-02-26T01:38:06;99916.72;;;-0.25;82.64
19208;BME280;9737;59.466;18.036;2024-02-26T01:41:23;99935.06;;;-0.27;82.12
19208;BME280;9737;59.466;18.036;2024-02-26T01:44:40;99985.00;;;-0.11;82.30
19208;BME280;9737;59.466;18.036;2024-02-26T01:48:00;99994.53;;;-0.10;82.35
19208;BME280;9737;59.466;18.036;2024-02-26T01:51:17;100016.03;;;-0.02;82.49
19208;BME280;9737;59.466;18.036;2024-02-26T01:54:35;100041.06;;;0.05;82.22
19208;BME280;9737;59.466;18.036;2024-02-26T01:57:53;100051.47;;;0.07;82.74
19208;BME280;9737;59.466;18.036;2024-02-26T02:01:11;100051.41;;;0.08;82.58
19208;BME280;9737;59.466;18.036;2024-02-26T02:04:31;100067.81;;;0.12;82.88
19208;BME280;9737;59.466;18.036;2024-02-26T02:07:48;100071.41;;;0.09;82.39
19208;BME280;9737;59.466;18.036;2024-02-26T02:11:06;100100.69;;;0.19;82.58
19208;BME280;9737;59.466;18.036;2024-02-26T02:14:26;100110.19;;;0.21;82.82
19208;BME280;9737;59.466;18.036;2024-02-26T02:17:43;100113.81;;;0.17;82.89
19208;BME280;9737;59.466;18.036;2024-02-26T02:21:02;100181.81;;;0.42;82.77
19208;BME280;9737;59.466;18.036;2024-02-26T02:24:19;100189.59;;;0.44;82.67
19208;BME280;9737;59.466;18.036;2024-02-26T02:27:36;100187.09;;;0.41;82.70
19208;BME280;9737;59.466;18.036;2024-02-26T02:30:50;100199.16;;;0.45;82.71
19208;BME280;9737;59.466;18.036;2024-02-26T02:34:08;100186.19;;;0.42;82.48
19208;BME280;9737;59.466;18.036;2024-02-26T02:37:21;100173.22;;;0.39;82.44
19208;BME280;9737;59.466;18.036;2024-02-26T02:40:32;100173.28;;;0.37;82.66
19208;BME280;9737;59.466;18.036;2024-02-26T02:43:49;100169.88;;;0.35;82.89
19208;BME280;9737;59.466;18.036;2024-02-26T02:47:00;100149.06;;;0.32;82.67
19208;BME280;9737;59.466;18.036;2024-02-26T02:50:17;100154.28;;;0.32;82.76
19208;BME280;9737;59.466;18.036;2024-02-26T02:53:36;100156.06;;;0.32;82.90
19208;BME280;9737;59.466;18.036;2024-02-26T02:56:53;100136.03;;;0.30;83.09
19208;BME280;9737;59.466;18.036;2024-02-26T03:00:11;100129.19;;;0.26;82.97
19208;BME280;9737;59.466;18.036;2024-02-26T03:03:28;100129.19;;;0.26;83.02
19208;BME280;9737;59.466;18.036;2024-02-26T03:06:45;100133.56;;;0.26;83.08
19208;BME280;9737;59.466;18.036;2024-02-26T03:10:04;100160.38;;;0.33;82.77
19208;BME280;9737;59.466;18.036;2024-02-26T03:13:21;100156.97;;;0.30;82.79
19208;BME280;9737;59.466;18.036;2024-02-26T03:16:38;100158.59;;;0.33;82.70
19208;BME280;9737;59.466;18.036;2024-02-26T03:19:55;100142.97;;;0.32;83.32
19208;BME280;9737;59.466;18.036;2024-02-26T03:23:12;100140.44;;;0.28;82.91
19208;BME280;9737;59.466;18.036;2024-02-26T03:26:33;100143.06;;;0.28;82.97
19208;BME280;9737;59.466;18.036;2024-02-26T03:29:49;100148.19;;;0.32;82.76
19208;BME280;9737;59.466;18.036;2024-02-26T03:33:06;100167.19;;;0.37;83.36
19208;BME280;9737;59.466;18.036;2024-02-26T03:36:23;100194.03;;;0.42;83.20
19208;BME280;9737;59.466;18.036;2024-02-26T03:39:40;100190.56;;;0.41;83.10
19208;BME280;9737;59.466;18.036;2024-02-26T03:42:59;100214.75;;;0.48;83.37
19208;BME280;9737;59.466;18.036;2024-02-26T03:46:15;100216.56;;;0.46;83.00
19208;BME280;9737;59.466;18.036;2024-02-26T03:49:32;100213.97;;;0.46;83.25
19208;BME280;9737;59.466;18.036;2024-02-26T03:53:14;100206.16;;;0.44;82.96
19208;BME280;9737;59.466;18.036;2024-02-26T03:56:57;100185.00;;;0.25;83.27
19208;BME280;9737;59.466;18.036;2024-02-26T04:00:42;100245.03;;;0.55;83.41
19208;BME280;9737;59.466;18.036;2024-02-26T04:04:23;100239.91;;;0.52;82.94
19208;BME280;9737;59.466;18.036;2024-02-26T04:08:05;100219.06;;;0.49;83.29
19208;BME280;9737;59.466;18.036;2024-02-26T04:11:46;100201.78;;;0.45;83.17
19208;BME280;9737;59.466;18.036;2024-02-26T04:15:28;100180.22;;;0.38;83.47
19208;BME280;9737;59.466;18.036;2024-02-26T04:19:12;100191.44;;;0.42;83.28
19208;BME280;9737;59.466;18.036;2024-02-26T04:22:52;100180.28;;;0.37;83.13
19208;BME280;9737;59.466;18.036;2024-02-26T04:26:34;100243.31;;;0.54;83.52
19208;BME280;9737;59.466;18.036;2024-02-26T04:30:16;100251.13;;;0.55;83.58
19208;BME280;9737;59.466;18.036;2024-02-26T04:33:57;100266.69;;;0.60;83.29
19208;BME280;9737;59.466;18.036;2024-02-26T04:37:40;100267.59;;;0.59;83.17
19208;BME280;9737;59.466;18.036;2024-02-26T04:41:20;100257.19;;;0.56;83.18
19208;BME280;9737;59.466;18.036;2024-02-26T04:44:59;100250.25;;;0.55;83.66
19208;BME280;9737;59.466;18.036;2024-02-26T04:48:41;100220.84;;;0.48;83.10
19208;BME280;9737;59.466;18.036;2024-02-26T04:52:23;100205.31;;;0.44;83.71
19208;BME280;9737;59.466;18.036;2024-02-26T04:56:08;100185.50;;;0.37;83.46
19208;BME280;9737;59.466;18.036;2024-02-26T04:59:48;100158.66;;;0.32;83.46
19208;BME280;9737;59.466;18.036;2024-02-26T05:03:30;100141.34;;;0.27;83.41
19208;BME280;9737;59.466;18.036;2024-02-26T05:07:12;100123.25;;;0.21;83.38
19208;BME280;9737;59.466;18.036;2024-02-26T05:10:54;100106.88;;;0.16;83.38
19208;BME280;9737;59.466;18.036;2024-02-26T05:14:37;100068.00;;;0.07;83.53
19208;BME280;9737;59.466;18.036;2024-02-26T05:18:11;100036.88;;;-0.01;83.48
19208;BME280;9737;59.466;18.036;2024-02-26T05:21:46;100019.59;;;-0.05;83.63
19208;BME280;9737;59.466;18.036;2024-02-26T05:25:29;99996.66;;;-0.20;83.76
19208;BME280;9737;59.466;18.036;2024-02-26T05:29:11;100008.41;;;-0.08;83.37
19208;BME280;9737;59.466;18.036;2024-02-26T05:32:47;100013.63;;;-0.08;83.73
19208;BME280;9737;59.466;18.036;2024-02-26T05:36:29;100011.81;;;-0.06;83.49
19208;BME280;9737;59.466;18.036;2024-02-26T05:40:12;100025.69;;;-0.04;83.73
19208;BME280;9737;59.466;18.036;2024-02-26T05:43:53;100028.28;;;-0.04;83.63
19208;BME280;9737;59.466;18.036;2024-02-26T05:47:35;100048.16;;;0.02;83.62
19208;BME280;9737;59.466;18.036;2024-02-26T05:51:19;100067.94;;;0.09;83.68
19208;BME280;9737;59.466;18.036;2024-02-26T05:55:00;100078.34;;;0.10;83.79
19208;BME280;9737;59.466;18.036;2024-02-26T05:58:42;100053.44;;;0.00;83.64
19208;BME280;9737;59.466;18.036;2024-02-26T06:02:24;100011.94;;;-0.09;83.75
19208;BME280;9737;59.466;18.036;2024-02-26T06:06:06;99963.53;;;-0.19;84.21
19208;BME280;9737;59.466;18.036;2024-02-26T06:09:48;99929.91;;;-0.28;83.99
19208;BME280;9737;59.466;18.036;2024-02-26T06:13:28;99909.13;;;-0.33;83.76
19208;BME280;9737;59.466;18.036;2024-02-26T06:17:10;99893.63;;;-0.38;83.91
19208;BME280;9737;59.466;18.036;2024-02-26T06:20:51;99890.16;;;-0.38;83.96
19208;BME280;9737;59.466;18.036;2024-02-26T06:24:34;99908.34;;;-0.35;84.01
19208;BME280;9737;59.466;18.036;2024-02-26T06:28:18;99918.63;;;-0.31;83.90
19208;BME280;9737;59.466;18.036;2024-02-26T06:31:58;99935.91;;;-0.26;84.26
19208;BME280;9737;59.466;18.036;2024-02-26T06:35:41;99968.00;;;-0.23;83.68
19208;BME280;9737;59.466;18.036;2024-02-26T06:39:21;100012.84;;;-0.10;84.36
19208;BME280;9737;59.466;18.036;2024-02-26T06:42:58;100056.81;;;0.04;84.23
19208;BME280;9737;59.466;18.036;2024-02-26T06:46:35;100108.59;;;0.17;83.83
19208;BME280;9737;59.466;18.036;2024-02-26T06:50:17;100175.97;;;0.36;83.82
19208;BME280;9737;59.466;18.036;2024-02-26T06:54:24;100263.41;;;0.53;84.09
19208;BME280;9737;59.466;18.036;2024-02-26T06:58:05;100350.69;;;0.77;84.09
19208;BME280;9737;59.466;18.036;2024-02-26T07:01:50;100393.16;;;0.87;84.16
19208;BME280;9737;59.466;18.036;2024-02-26T07:05:30;100432.06;;;0.98;83.93
19208;BME280;9737;59.466;18.036;2024-02-26T07:09:12;100451.09;;;1.03;84.17
19208;BME280;9737;59.466;18.036;2024-02-26T07:12:53;100439.75;;;1.02;83.86
19208;BME280;9737;59.466;18.036;2024-02-26T07:16:35;100470.16;;;1.06;84.36
19208;BME280;9737;59.466;18.036;2024-02-26T07:20:20;100461.44;;;1.06;83.89
19208;BME280;9737;59.466;18.036;2024-02-26T07:23:54;100477.91;;;1.09;84.16
19208;BME280;9737;59.466;18.036;2024-02-26T07:27:36;100476.31;;;1.05;84.67
19208;BME280;9737;59.466;18.036;2024-02-26T07:31:18;100494.38;;;1.13;84.33
19208;BME280;9737;59.466;18.036;2024-02-26T07:35:00;100514.31;;;1.18;84.38
19208;BME280;9737;59.466;18.036;2024-02-26T07:38:36;100591.31;;;1.39;84.44
19208;BME280;9737;59.466;18.036;2024-02-26T07:42:18;100716.25;;;1.67;84.47
19208;BME280;9737;59.466;18.036;2024-02-26T07:46:00;100894.91;;;2.13;84.28
19208;BME280;9737;59.466;18.036;2024-02-26T07:49:36;101216.38;;;2.92;84.34
19208;BME280;9737;59.466;18.036;2024-02-26T07:53:17;101694.41;;;4.11;84.35
19208;BME280;9737;59.466;18.036;2024-02-26T07:56:55;102099.41;;;5.11;84.55
19208;BME280;9737;59.466;18.036;2024-02-26T08:00:30;102669.41;;;6.46;84.18
19208;BME280;9737;59.466;18.036;2024-02-26T08:04:12;102837.88;;;6.84;84.24
19208;BME280;9737;59.466;18.036;2024-02-26T08:07:54;102807.13;;;6.79;84.37
19208;BME280;9737;59.466;18.036;2024-02-26T08:11:36;102793.97;;;6.76;84.62
19208;BME280;9737;59.466;18.036;2024-02-26T08:15:20;102744.84;;;6.63;84.93
19208;BME280;9737;59.466;18.036;2024-02-26T08:19:00;102578.44;;;6.15;85.01
19208;BME280;9737;59.466;18.036;2024-02-26T08:22:41;102403.97;;;5.79;84.46
19208;BME280;9737;59.466;18.036;2024-02-26T08:26:23;102285.84;;;5.49;84.84
19208;BME280;9737;59.466;18.036;2024-02-26T08:30:06;102263.06;;;5.45;84.46
19208;BME280;9737;59.466;18.036;2024-02-26T08:38:48;101934.50;;;4.63;84.53
19208;BME280;9737;59.466;18.036;2024-02-26T08:41:16;101943.16;;;4.69;84.56
19208;BME280;9737;59.466;18.036;2024-02-26T08:43:44;101912.59;;;4.60;84.89
19208;BME280;9737;59.466;18.036;2024-02-26T08:46:12;101874.22;;;4.50;84.56
19208;BME280;9737;59.466;18.036;2024-02-26T08:48:40;101896.88;;;4.57;85.17
19208;BME280;9737;59.466;18.036;2024-02-26T08:51:09;101936.16;;;4.68;85.06
19208;BME280;9737;59.466;18.036;2024-02-26T08:53:38;101970.34;;;4.71;84.66
19208;BME280;9737;59.466;18.036;2024-02-26T08:56:11;101944.91;;;4.70;84.54
19208;BME280;9737;59.466;18.036;2024-02-26T08:58:44;102039.31;;;4.88;84.90
19208;BME280;9737;59.466;18.036;2024-02-26T09:01:15;102158.16;;;5.17;84.27
19208;BME280;9737;59.466;18.036;2024-02-26T09:03:43;102141.59;;;5.12;85.01
19208;BME280;9737;59.466;18.036;2024-02-26T09:06:11;102169.50;;;5.22;84.38
19208;BME280;9737;59.466;18.036;2024-02-26T09:08:42;102276.19;;;5.48;84.75
19208;BME280;9737;59.466;18.036;2024-02-26T09:11:11;102411.91;;;5.79;84.83
19208;BME280;9737;59.466;18.036;2024-02-26T09:13:39;102521.38;;;6.08;84.42
19208;BME280;9737;59.466;18.036;2024-02-26T09:16:07;102464.56;;;5.85;84.99
19208;BME280;9737;59.466;18.036;2024-02-26T09:18:35;102448.66;;;5.88;84.80
19208;BME280;9737;59.466;18.036;2024-02-26T09:21:04;102350.75;;;5.59;84.38
19208;BME280;9737;59.466;18.036;2024-02-26T09:23:32;102383.88;;;5.72;84.74
19208;BME280;9737;59.466;18.036;2024-02-26T09:26:01;102371.66;;;5.68;84.88
19208;BME280;9737;59.466;18.036;2024-02-26T09:28:30;102353.28;;;5.64;84.86
19208;BME280;9737;59.466;18.036;2024-02-26T09:31:04;102378.59;;;5.72;85.00
19208;BME280;9737;59.466;18.036;2024-02-26T09:33:33;102367.31;;;5.66;84.70
19208;BME280;9737;59.466;18.036;2024-02-26T09:36:01;102389.97;;;5.74;84.62
19208;BME280;9737;59.466;18.036;2024-02-26T09:38:30;102371.66;;;5.68;84.57
19208;BME280;9737;59.466;18.036;2024-02-26T09:41:14;102377.75;;;5.70;84.64
19208;BME280;9737;59.466;18.036;2024-02-26T09:43:45;102401.44;;;5.73;84.32
19208;BME280;9737;59.466;18.036;2024-02-26T09:46:13;102435.53;;;5.85;84.45
19208;BME280;9737;59.466;18.036;2024-02-26T09:48:42;102450.44;;;5.89;84.65
19208;BME280;9737;59.466;18.036;2024-02-26T09:51:12;102466.22;;;5.93;85.13
19208;BME280;9737;59.466;18.036;2024-02-26T09:53:43;102442.50;;;5.88;84.58
19208;BME280;9737;59.466;18.036;2024-02-26T09:56:12;102462.72;;;5.90;84.59
19208;BME280;9737;59.466;18.036;2024-02-26T09:58:43;102463.56;;;5.93;84.92
19208;BME280;9737;59.466;18.036;2024-02-26T10:01:17;102498.59;;;6.01;84.86
19208;BME280;9737;59.466;18.036;2024-02-26T10:03:50;102567.88;;;6.15;84.62
19208;BME280;9737;59.466;18.036;2024-02-26T10:06:19;102564.38;;;6.14;84.89
19208;BME280;9737;59.466;18.036;2024-02-26T10:08:47;102620.47;;;6.27;84.63
19208;BME280;9737;59.466;18.036;2024-02-26T10:11:16;102679.25;;;6.40;85.04
19208;BME280;9737;59.466;18.036;2024-02-26T10:13:47;102787.94;;;6.69;84.41
19208;BME280;9737;59.466;18.036;2024-02-26T10:16:16;102747.56;;;6.60;84.76
19208;BME280;9737;59.466;18.036;2024-02-26T10:18:47;102795.84;;;6.71;84.82
19208;BME280;9737;59.466;18.036;2024-02-26T10:21:20;102862.50;;;6.88;84.65
19208;BME280;9737;59.466;18.036;2024-02-26T10:23:48;102774.78;;;6.65;84.78
19208;BME280;9737;59.466;18.036;2024-02-26T10:26:17;102788.81;;;6.70;84.36
19208;BME280;9737;59.466;18.036;2024-02-26T10:28:46;102769.50;;;6.65;84.94
19208;BME280;9737;59.466;18.036;2024-02-26T10:31:20;102742.28;;;6.60;84.32
19208;BME280;9737;59.466;18.036;2024-02-26T10:33:48;102702.88;;;6.47;84.82
19208;BME280;9737;59.466;18.036;2024-02-26T10:36:17;102732.66;;;6.56;84.42
19208;BME280;9737;59.466;18.036;2024-02-26T10:38:45;102787.06;;;6.69;84.53
19208;BME280;9737;59.466;18.036;2024-02-26T10:41:14;102737.00;;;6.58;84.60
19208;BME280;9737;59.466;18.036;2024-02-26T10:43:42;102707.25;;;6.48;84.36
19208;BME280;9737;59.466;18.036;2024-02-26T10:46:12;102753.69;;;6.62;84.72
19208;BME280;9737;59.466;18.036;2024-02-26T10:48:40;102799.38;;;6.70;84.29
19208;BME280;9737;59.466;18.036;2024-02-26T10:51:18;102887.94;;;6.95;84.57
19208;BME280;9737;59.466;18.036;2024-02-26T10:53:49;103261.56;;;7.75;84.28
19208;BME280;9737;59.466;18.036;2024-02-26T10:56:21;103624.28;;;8.69;84.52
19208;BME280;9737;59.466;18.036;2024-02-26T10:58:52;103687.78;;;8.81;84.60
19208;BME280;9737;59.466;18.036;2024-02-26T11:01:22;103620.81;;;8.64;84.52
19208;BME280;9737;59.466;18.036;2024-02-26T11:03:52;103532.66;;;8.47;84.46
19208;BME280;9737;59.466;18.036;2024-02-26T11:06:21;103472.72;;;8.30;84.68
19208;BME280;9737;59.466;18.036;2024-02-26T11:08:50;103477.09;;;8.33;84.32
19208;BME280;9737;59.466;18.036;2024-02-26T11:11:19;103585.50;;;8.59;84.31
19208;BME280;9737;59.466;18.036;2024-02-26T11:13:48;103747.72;;;8.99;84.09
19208;BME280;9737;59.466;18.036;2024-02-26T11:16:18;103992.25;;;9.51;83.95
19208;BME280;9737;59.466;18.036;2024-02-26T11:18:48;104068.19;;;9.72;84.72
19208;BME280;9737;59.466;18.036;2024-02-26T11:21:16;104060.25;;;9.71;84.41
19208;BME280;9737;59.466;18.036;2024-02-26T11:23:46;104279.56;;;10.20;84.44
19208;BME280;9737;59.466;18.036;2024-02-26T11:26:15;104422.06;;;10.52;84.46
19208;BME280;9737;59.466;18.036;2024-02-26T11:28:44;104941.53;;;11.74;84.29
19208;BME280;9737;59.466;18.036;2024-02-26T11:31:13;105023.28;;;11.91;84.04
19208;BME280;9737;59.466;18.036;2024-02-26T11:33:41;105024.16;;;11.91;84.43
19208;BME280;9737;59.466;18.036;2024-02-26T11:36:11;104736.59;;;11.24;84.26
19208;BME280;9737;59.466;18.036;2024-02-26T11:38:40;104552.22;;;10.82;84.64
19208;BME280;9737;59.466;18.036;2024-02-26T11:41:09;104605.34;;;10.98;83.91
19208;BME280;9737;59.466;18.036;2024-02-26T11:43:53;104588.53;;;10.93;83.87
19208;BME280;9737;59.466;18.036;2024-02-26T11:46:28;104818.19;;;11.43;84.32
19208;BME280;9737;59.466;18.036;2024-02-26T11:48:58;105025.94;;;11.91;84.19
19208;BME280;9737;59.466;18.036;2024-02-26T11:51:32;104970.88;;;11.79;84.13
19208;BME280;9737;59.466;18.036;2024-02-26T11:54:00;104944.22;;;11.73;84.44
19208;BME280;9737;59.466;18.036;2024-02-26T11:56:28;104880.31;;;11.59;83.95
19208;BME280;9737;59.466;18.036;2024-02-26T11:59:04;105145.03;;;12.15;84.35
19208;BME280;9737;59.466;18.036;2024-02-26T12:01:45;105132.56;;;12.17;84.15
19208;BME280;9737;59.466;18.036;2024-02-26T12:04:17;104872.31;;;11.56;84.15
19208;BME280;9737;59.466;18.036;2024-02-26T12:06:52;104714.41;;;11.21;83.93
19208;BME280;9737;59.466;18.036;2024-02-26T12:09:31;104483.13;;;10.67;84.08
19208;BME280;9737;59.466;18.036;2024-02-26T12:12:01;104387.50;;;10.46;84.12
19208;BME280;9737;59.466;18.036;2024-02-26T12:14:29;104263.63;;;10.14;83.89
19208;BME280;9737;59.466;18.036;2024-02-26T12:17:00;103971.97;;;9.46;84.47
19208;BME280;9737;59.466;18.036;2024-02-26T12:19:30;103798.97;;;9.06;84.05
19208;BME280;9737;59.466;18.036;2024-02-26T12:22:00;103813.03;;;9.11;84.34
19208;BME280;9737;59.466;18.036;2024-02-26T12:24:28;103682.47;;;8.81;84.34
19208;BME280;9737;59.466;18.036;2024-02-26T12:26:55;103714.22;;;8.89;84.01
19208;BME280;9737;59.466;18.036;2024-02-26T12:29:24;103616.34;;;8.66;83.51
19208;BME280;9737;59.466;18.036;2024-02-26T12:31:52;103531.81;;;8.43;83.76
19208;BME280;9737;59.466;18.036;2024-02-26T12:34:20;103557.31;;;8.52;84.10
19208;BME280;9737;59.466;18.036;2024-02-26T12:36:49;103523.84;;;8.45;83.63
19208;BME280;9737;59.466;18.036;2024-02-26T12:39:18;103538.84;;;8.46;84.32
19208;BME280;9737;59.466;18.036;2024-02-26T12:41:47;103499.19;;;8.36;83.55
19208;BME280;9737;59.466;18.036;2024-02-26T12:44:16;103492.09;;;8.37;84.06
19208;BME280;9737;59.466;18.036;2024-02-26T12:46:44;103537.06;;;8.48;83.44
19208;BME280;9737;59.466;18.036;2024-02-26T12:49:15;103533.63;;;8.41;83.74
19208;BME280;9737;59.466;18.036;2024-02-26T12:51:44;103486.81;;;8.35;83.94
19208;BME280;9737;59.466;18.036;2024-02-26T12:54:12;103559.09;;;8.51;83.65
19208;BME280;9737;59.466;18.036;2024-02-26T12:56:42;103515.03;;;8.43;83.83
19208;BME280;9737;59.466;18.036;2024-02-26T12:59:10;103376.75;;;8.08;83.45
19208;BME280;9737;59.466;18.036;2024-02-26T13:01:38;103230.63;;;7.76;83.86
19208;BME280;9737;59.466;18.036;2024-02-26T13:04:06;103177.00;;;7.63;83.64
19208;BME280;9737;59.466;18.036;2024-02-26T13:06:35;103194.59;;;7.67;83.67
19208;BME280;9737;59.466;18.036;2024-02-26T13:09:03;103175.25;;;7.62;83.67
19208;BME280;9737;59.466;18.036;2024-02-26T13:11:32;103145.41;;;7.54;83.57
19208;BME280;9737;59.466;18.036;2024-02-26T13:14:01;103083.78;;;7.43;83.64
19208;BME280;9737;59.466;18.036;2024-02-26T13:16:33;103062.72;;;7.37;83.65
19208;BME280;9737;59.466;18.036;2024-02-26T13:19:08;103048.66;;;7.33;83.91
19208;BME280;9737;59.466;18.036;2024-02-26T13:21:36;103082.03;;;7.42;83.72
19208;BME280;9737;59.466;18.036;2024-02-26T13:24:06;103062.72;;;7.37;83.80
19208;BME280;9737;59.466;18.036;2024-02-26T13:26:34;102971.34;;;7.14;83.54
19208;BME280;9737;59.466;18.036;2024-02-26T13:29:03;102976.63;;;7.16;83.52
19208;BME280;9737;59.466;18.036;2024-02-26T13:31:31;103024.09;;;7.27;83.83
19208;BME280;9737;59.466;18.036;2024-02-26T13:33:59;103034.63;;;7.30;83.74
19208;BME280;9737;59.466;18.036;2024-02-26T13:36:27;103045.16;;;7.33;83.61
19208;BME280;9737;59.466;18.036;2024-02-26T13:38:55;103029.38;;;7.27;83.57
19208;BME280;9737;59.466;18.036;2024-02-26T13:41:23;103041.63;;;7.32;83.68
19208;BME280;9737;59.466;18.036;2024-02-26T13:43:51;103084.69;;;7.42;83.56
19208;BME280;9737;59.466;18.036;2024-02-26T13:46:20;103041.66;;;7.31;83.35
19208;BME280;9737;59.466;18.036;2024-02-26T13:48:48;103021.44;;;7.27;83.74
19208;BME280;9737;59.466;18.036;2024-02-26T13:51:16;102991.56;;;7.19;83.23
19208;BME280;9737;59.466;18.036;2024-02-26T13:53:44;102959.09;;;7.10;83.50
19208;BME280;9737;59.466;18.036;2024-02-26T13:56:12;102933.66;;;7.03;83.37
19208;BME280;9737;59.466;18.036;2024-02-26T13:58:40;102920.41;;;7.03;83.41
19208;BME280;9737;59.466;18.036;2024-02-26T14:01:08;102881.78;;;6.93;83.17
19208;BME280;9737;59.466;18.036;2024-02-26T14:03:37;102839.66;;;6.84;83.60
19208;BME280;9737;59.466;18.036;2024-02-26T14:06:05;102791.41;;;6.71;83.21
19208;BME280;9737;59.466;18.036;2024-02-26T14:08:34;102732.72;;;6.52;83.29
19208;BME280;9737;59.466;18.036;2024-02-26T14:11:02;102679.09;;;6.46;83.77
19208;BME280;9737;59.466;18.036;2024-02-26T14:13:30;102653.69;;;6.40;83.55
19208;BME280;9737;59.466;18.036;2024-02-26T14:16:00;102659.88;;;6.39;83.44
19208;BME280;9737;59.466;18.036;2024-02-26T14:18:28;102624.78;;;6.31;83.70
19208;BME280;9737;59.466;18.036;2024-02-26T14:20:57;102566.94;;;6.17;83.67
19208;BME280;9737;59.466;18.036;2024-02-26T14:23:26;102557.28;;;6.16;83.62
19208;BME280;9737;59.466;18.036;2024-02-26T14:25:54;102485.47;;;5.98;83.06
19208;BME280;9737;59.466;18.036;2024-02-26T14:28:22;102457.38;;;5.94;83.37
19208;BME280;9737;59.466;18.036;2024-02-26T14:31:01;102428.50;;;5.84;83.63
19208;BME280;9737;59.466;18.036;2024-02-26T14:33:30;102393.44;;;5.76;83.06
19208;BME280;9737;59.466;18.036;2024-02-26T14:36:00;102396.97;;;5.78;83.74
19208;BME280;9737;59.466;18.036;2024-02-26T14:38:28;102367.16;;;5.72;83.04
19208;BME280;9737;59.466;18.036;2024-02-26T14:40:57;102347.03;;;5.66;83.34
19208;BME280;9737;59.466;18.036;2024-02-26T14:43:25;102330.44;;;5.61;82.81
19208;BME280;9737;59.466;18.036;2024-02-26T14:45:53;102308.56;;;5.56;82.79
19208;BME280;9737;59.466;18.036;2024-02-26T14:48:20;102271.81;;;5.47;83.54
19208;BME280;9737;59.466;18.036;2024-02-26T14:50:49;102259.53;;;5.46;82.71
19208;BME280;9737;59.466;18.036;2024-02-26T14:53:19;102217.59;;;5.34;83.48
19208;BME280;9737;59.466;18.036;2024-02-26T14:55:47;102194.00;;;5.27;82.85
19208;BME280;9737;59.466;18.036;2024-02-26T14:58:15;102142.34;;;5.17;83.60
19208;BME280;9737;59.466;18.036;2024-02-26T15:00:43;102109.19;;;5.07;82.74
19208;BME280;9737;59.466;18.036;2024-02-26T15:03:11;102019.09;;;4.88;83.66
19208;BME280;9737;59.466;18.036;2024-02-26T15:05:39;101995.56;;;4.81;83.05
19208;BME280;9737;59.466;18.036;2024-02-26T15:08:07;101936.25;;;4.64;83.15
19208;BME280;9737;59.466;18.036;2024-02-26T15:10:42;101919.56;;;4.64;83.00
19208;BME280;9737;59.466;18.036;2024-02-26T15:13:15;101882.91;;;4.53;83.55
19208;BME280;9737;59.466;18.036;2024-02-26T15:15:45;101838.41;;;4.43;83.47
19208;BME280;9737;59.466;18.036;2024-02-26T15:18:13;101825.28;;;4.41;82.78
19208;BME280;9737;59.466;18.036;2024-02-26T15:20:43;101761.59;;;4.25;83.08
19208;BME280;9737;59.466;18.036;2024-02-26T15:23:12;101722.38;;;4.15;83.40
19208;BME280;9737;59.466;18.036;2024-02-26T15:25:40;101698.88;;;4.07;83.21
19208;BME280;9737;59.466;18.036;2024-02-26T15:28:09;101668.28;;;4.01;82.92